createdAt,value
2023-05-07T00:00:19.098Z,10.32
2023-05-07T00:00:52.185Z,10.73
2023-05-07T00:01:24.005Z,10.50
2023-05-07T00:01:56.838Z,9.52
2023-05-07T00:02:28.805Z,9.57
2023-05-07T00:03:00.881Z,10.55
2023-05-07T00:03:33.298Z,9.40
2023-05-07T00:04:08.498Z,10.32
2023-05-07T00:04:40.541Z,10.40
2023-05-07T00:05:12.510Z,10.10
2023-05-07T00:05:45.484Z,9.73
2023-05-07T00:06:18.719Z,10.77
2023-05-07T00:06:50.760Z,11.52
2023-05-07T00:07:23.557Z,10.75
2023-05-07T00:07:56.329Z,9.88
2023-05-07T00:08:29.192Z,10.95
2023-05-07T00:09:02.064Z,10.23
2023-05-07T00:09:33.948Z,10.20
2023-05-07T00:10:07.507Z,9.57
2023-05-07T00:10:39.437Z,10.20
2023-05-07T00:11:12.386Z,9.90
2023-05-07T00:11:44.174Z,10.05
2023-05-07T00:12:15.998Z,10.00
2023-05-07T00:12:47.820Z,9.43
2023-05-07T00:13:20.775Z,9.30
2023-05-07T00:13:52.745Z,10.57
2023-05-07T00:14:24.625Z,9.27
2023-05-07T00:14:57.502Z,9.90
2023-05-07T00:15:29.276Z,10.52
2023-05-07T00:16:01.170Z,8.55
2023-05-07T00:16:33.108Z,9.40
2023-05-07T00:17:06.070Z,10.52
2023-05-07T00:17:38.437Z,10.35
2023-05-07T00:18:10.277Z,9.50
2023-05-07T00:18:43.007Z,9.20
2023-05-07T00:19:14.776Z,9.63
2023-05-07T00:19:47.554Z,9.15
2023-05-07T00:20:19.362Z,9.88
2023-05-07T00:20:52.138Z,8.10
2023-05-07T00:21:27.494Z,9.60
2023-05-07T00:21:59.361Z,9.25
2023-05-07T00:22:31.237Z,9.15
2023-05-07T00:23:04.007Z,9.40
2023-05-07T00:23:35.802Z,9.35
2023-05-07T00:24:07.705Z,8.10
2023-05-07T00:24:39.490Z,9.10
2023-05-07T00:25:12.438Z,9.32
2023-05-07T00:25:44.227Z,8.68
2023-05-07T00:26:16.085Z,9.40
2023-05-07T00:26:47.913Z,8.82
2023-05-07T00:27:20.696Z,8.70
2023-05-07T00:27:52.467Z,9.40
2023-05-07T00:28:24.347Z,10.38
2023-05-07T00:28:57.125Z,9.48
2023-05-07T00:29:28.925Z,9.95
2023-05-07T00:30:01.081Z,9.23
2023-05-07T00:30:34.039Z,8.57
2023-05-07T00:31:05.902Z,9.75
2023-05-07T00:31:38.730Z,10.07
2023-05-07T00:32:10.604Z,9.52
2023-05-07T00:32:42.553Z,9.02
2023-05-07T00:33:15.407Z,9.50
2023-05-07T00:33:47.560Z,9.40
2023-05-07T00:34:20.194Z,8.88
2023-05-07T00:34:52.091Z,8.77
2023-05-07T00:35:25.203Z,10.07
2023-05-07T00:35:57.071Z,10.10
2023-05-07T00:36:31.058Z,9.35
2023-05-07T00:37:06.475Z,9.10
2023-05-07T00:37:38.520Z,10.30
2023-05-07T00:38:10.350Z,9.40
2023-05-07T00:38:43.144Z,9.35
2023-05-07T00:39:14.974Z,9.50
2023-05-07T00:39:46.769Z,10.05
2023-05-07T00:40:19.656Z,9.00
2023-05-07T00:40:52.438Z,9.32
2023-05-07T00:41:24.294Z,10.27
2023-05-07T00:41:56.354Z,9.35
2023-05-07T00:42:30.099Z,9.27
2023-05-07T00:43:01.950Z,9.45
2023-05-07T00:43:34.083Z,9.63
2023-05-07T00:44:07.675Z,10.20
2023-05-07T00:44:39.531Z,9.43
2023-05-07T00:45:11.703Z,9.25
2023-05-07T00:45:43.588Z,9.30
2023-05-07T00:46:17.214Z,9.70
2023-05-07T00:46:50.822Z,9.85
2023-05-07T00:47:22.761Z,10.18
2023-05-07T00:47:56.920Z,9.93
2023-05-07T00:48:29.108Z,9.30
2023-05-07T00:49:01.254Z,10.10
2023-05-07T00:49:39.926Z,8.88
2023-05-07T00:50:13.495Z,10.32
2023-05-07T00:50:46.647Z,8.50
2023-05-07T00:51:20.133Z,10.30
2023-05-07T00:51:53.299Z,9.23
2023-05-07T00:52:27.184Z,9.65
2023-05-07T00:53:00.542Z,9.85
2023-05-07T00:53:32.411Z,9.20
2023-05-07T00:54:04.648Z,9.52
2023-05-07T00:54:37.928Z,10.52
2023-05-07T00:55:10.303Z,10.35
2023-05-07T00:55:42.707Z,9.48
2023-05-07T00:56:15.999Z,10.50
2023-05-07T00:56:47.852Z,10.35
2023-05-07T00:57:22.083Z,10.20
2023-05-07T00:57:55.332Z,10.10
2023-05-07T00:58:27.316Z,9.43
2023-05-07T00:58:59.228Z,9.50
2023-05-07T00:59:33.598Z,10.05
2023-05-07T01:00:06.860Z,10.32
2023-05-07T01:00:38.679Z,9.13
2023-05-07T01:01:11.765Z,10.32
2023-05-07T01:01:43.994Z,10.13
2023-05-07T01:02:15.984Z,10.27
2023-05-07T01:02:48.119Z,9.60
2023-05-07T01:03:21.552Z,12.43
2023-05-07T01:03:54.578Z,10.63
2023-05-07T01:04:27.768Z,10.55
2023-05-07T01:05:02.764Z,10.50
2023-05-07T01:05:35.414Z,10.82
2023-05-07T01:06:09.499Z,9.80
2023-05-07T01:06:43.627Z,10.07
2023-05-07T01:07:17.406Z,9.98
2023-05-07T01:07:50.657Z,10.10
2023-05-07T01:08:26.649Z,10.55
2023-05-07T01:08:59.201Z,10.25
2023-05-07T01:09:31.229Z,9.50
2023-05-07T01:10:05.184Z,10.38
2023-05-07T01:10:37.055Z,9.10
2023-05-07T01:11:10.004Z,10.90
2023-05-07T01:11:43.714Z,9.82
2023-05-07T01:12:16.206Z,12.07
2023-05-07T01:12:49.313Z,11.43
2023-05-07T01:13:22.838Z,11.60
2023-05-07T01:13:55.033Z,10.35
2023-05-07T01:14:27.031Z,11.13
2023-05-07T01:15:00.347Z,10.00
2023-05-07T01:15:32.228Z,10.40
2023-05-07T01:16:04.965Z,10.63
2023-05-07T01:16:38.805Z,10.88
2023-05-07T01:17:10.858Z,10.35
2023-05-07T01:17:43.890Z,10.85
2023-05-07T01:18:17.005Z,10.25
2023-05-07T01:18:49.925Z,11.25
2023-05-07T01:19:22.006Z,11.10
2023-05-07T01:19:54.991Z,11.68
2023-05-07T01:20:27.204Z,9.57
2023-05-07T01:21:00.803Z,11.25
2023-05-07T01:21:35.487Z,9.82
2023-05-07T01:22:10.275Z,16.85
2023-05-07T01:22:44.739Z,10.05
2023-05-07T01:23:18.011Z,10.90
2023-05-07T01:23:50.673Z,10.50
2023-05-07T01:24:22.830Z,10.43
2023-05-07T01:24:57.001Z,11.27
2023-05-07T01:25:29.516Z,10.25
2023-05-07T01:26:01.287Z,9.82
2023-05-07T01:26:34.427Z,10.50
2023-05-07T01:27:06.296Z,11.18
2023-05-07T01:27:38.147Z,10.32
2023-05-07T01:28:11.060Z,9.43
2023-05-07T01:28:42.875Z,10.90
2023-05-07T01:29:14.661Z,10.30
2023-05-07T01:29:46.510Z,11.57
2023-05-07T01:30:20.681Z,10.30
2023-05-07T01:30:56.406Z,9.90
2023-05-07T01:31:28.472Z,9.70
2023-05-07T01:32:02.955Z,11.27
2023-05-07T01:32:39.013Z,10.40
2023-05-07T01:33:14.532Z,10.02
2023-05-07T01:33:50.053Z,10.30
2023-05-07T01:34:23.632Z,10.85
2023-05-07T01:34:56.182Z,9.68
2023-05-07T01:35:34.202Z,10.25
2023-05-07T01:36:08.127Z,10.70
2023-05-07T01:36:41.945Z,11.02
2023-05-07T01:37:14.440Z,10.45
2023-05-07T01:37:48.328Z,10.18
2023-05-07T01:38:22.884Z,10.60
2023-05-07T01:38:54.937Z,11.40
2023-05-07T01:39:28.071Z,9.55
2023-05-07T01:40:01.100Z,10.07
2023-05-07T01:40:33.418Z,10.25
2023-05-07T01:41:05.817Z,10.85
2023-05-07T01:41:39.119Z,10.60
2023-05-07T01:42:10.970Z,10.35
2023-05-07T01:42:43.843Z,9.73
2023-05-07T01:43:16.276Z,9.43
2023-05-07T01:43:49.805Z,10.05
2023-05-07T01:44:22.184Z,11.25
2023-05-07T01:44:54.074Z,9.65
2023-05-07T01:45:27.468Z,9.20
2023-05-07T01:46:01.184Z,10.70
2023-05-07T01:46:34.003Z,10.75
2023-05-07T01:47:08.205Z,9.25
2023-05-07T01:47:40.759Z,9.98
2023-05-07T01:48:13.868Z,9.70
2023-05-07T01:48:47.428Z,9.32
2023-05-07T01:49:19.461Z,9.77
2023-05-07T01:49:51.537Z,9.00
2023-05-07T01:50:24.389Z,10.40
2023-05-07T01:50:57.681Z,11.07
2023-05-07T01:51:29.623Z,9.10
2023-05-07T01:52:01.895Z,10.23
2023-05-07T01:52:34.738Z,10.15
2023-05-07T01:53:07.907Z,8.70
2023-05-07T01:53:41.538Z,10.40
2023-05-07T01:54:14.301Z,10.95
2023-05-07T01:54:46.390Z,11.00
2023-05-07T01:55:18.295Z,10.70
2023-05-07T01:55:51.058Z,10.07
2023-05-07T01:56:23.061Z,9.73
2023-05-07T01:56:54.875Z,10.00
2023-05-07T01:57:26.719Z,10.48
2023-05-07T01:57:59.440Z,9.73
2023-05-07T01:58:31.306Z,10.18
2023-05-07T01:59:03.133Z,8.85
2023-05-07T01:59:35.064Z,10.10
2023-05-07T02:00:10.119Z,9.75
2023-05-07T02:00:42.734Z,9.68
2023-05-07T02:01:14.905Z,10.55
2023-05-07T02:01:48.511Z,10.45
2023-05-07T02:02:20.478Z,9.25
2023-05-07T02:02:53.726Z,10.07
2023-05-07T02:03:26.683Z,10.70
2023-05-07T02:03:58.557Z,10.93
2023-05-07T02:04:31.345Z,9.35
2023-05-07T02:05:03.291Z,12.50
2023-05-07T02:05:35.127Z,9.88
2023-05-07T02:06:08.131Z,10.05
2023-05-07T02:06:39.976Z,9.10
2023-05-07T02:07:11.769Z,10.85
2023-05-07T02:07:44.610Z,9.00
2023-05-07T02:08:17.820Z,9.55
2023-05-07T02:08:49.655Z,9.45
2023-05-07T02:09:21.442Z,10.15
2023-05-07T02:09:54.645Z,10.25
2023-05-07T02:10:26.423Z,9.23
2023-05-07T02:10:58.227Z,10.00
2023-05-07T02:11:30.030Z,10.55
2023-05-07T02:12:02.756Z,9.70
2023-05-07T02:12:34.543Z,9.88
2023-05-07T02:13:06.559Z,10.38
2023-05-07T02:13:38.496Z,9.85
2023-05-07T02:14:11.336Z,9.50
2023-05-07T02:14:43.449Z,9.60
2023-05-07T02:15:15.272Z,10.63
2023-05-07T02:15:51.204Z,10.00
2023-05-07T02:16:24.122Z,9.50
2023-05-07T02:16:56.001Z,9.52
2023-05-07T02:17:32.632Z,9.63
2023-05-07T02:18:06.013Z,9.75
2023-05-07T02:18:37.871Z,9.68
2023-05-07T02:19:10.646Z,9.52
2023-05-07T02:19:42.526Z,11.43
2023-05-07T02:20:14.516Z,10.23
2023-05-07T02:20:47.409Z,9.23
2023-05-07T02:21:19.255Z,10.75
2023-05-07T02:21:52.233Z,9.13
2023-05-07T02:22:25.103Z,9.55
2023-05-07T02:22:57.158Z,9.80
2023-05-07T02:23:30.356Z,9.65
2023-05-07T02:24:02.377Z,10.30
2023-05-07T02:24:35.125Z,9.60
2023-05-07T02:25:07.410Z,8.98
2023-05-07T02:25:39.305Z,9.75
2023-05-07T02:26:12.980Z,9.20
2023-05-07T02:26:44.765Z,9.63
2023-05-07T02:27:16.555Z,9.75
2023-05-07T02:27:48.345Z,10.05
2023-05-07T02:28:21.127Z,9.77
2023-05-07T02:28:52.943Z,9.43
2023-05-07T02:29:24.854Z,10.73
2023-05-07T02:29:56.779Z,9.68
2023-05-07T02:30:29.651Z,10.00
2023-05-07T02:31:01.742Z,9.55
2023-05-07T02:31:34.904Z,9.80
2023-05-07T02:32:07.964Z,9.07
2023-05-07T02:32:39.774Z,9.95
2023-05-07T02:33:13.513Z,9.27
2023-05-07T02:33:47.257Z,9.02
2023-05-07T02:34:19.328Z,9.48
2023-05-07T02:34:51.864Z,9.25
2023-05-07T02:35:25.925Z,9.77
2023-05-07T02:35:57.732Z,10.05
2023-05-07T02:36:29.605Z,8.68
2023-05-07T02:37:02.348Z,9.75
2023-05-07T02:37:34.111Z,10.10
2023-05-07T02:38:05.987Z,9.40
2023-05-07T02:38:40.120Z,9.57
2023-05-07T02:39:12.052Z,9.50
2023-05-07T02:39:43.833Z,10.02
2023-05-07T02:40:16.595Z,9.20
2023-05-07T02:40:48.453Z,9.30
2023-05-07T02:41:21.004Z,8.80
2023-05-07T02:41:53.762Z,9.15
2023-05-07T02:42:25.637Z,9.52
2023-05-07T02:42:57.406Z,9.68
2023-05-07T02:43:30.433Z,10.15
2023-05-07T02:44:02.199Z,9.00
2023-05-07T02:44:34.019Z,11.73
2023-05-07T02:45:07.751Z,10.10
2023-05-07T02:45:39.693Z,8.93
2023-05-07T02:46:11.702Z,9.15
2023-05-07T02:46:44.546Z,9.73
2023-05-07T02:47:16.637Z,9.73
2023-05-07T02:47:48.476Z,8.65
2023-05-07T02:48:21.267Z,8.65
2023-05-07T02:48:53.149Z,9.32
2023-05-07T02:49:25.351Z,9.93
2023-05-07T02:49:58.100Z,9.75
2023-05-07T02:50:30.497Z,9.23
2023-05-07T02:51:02.944Z,9.30
2023-05-07T02:51:35.747Z,8.23
2023-05-07T02:52:07.892Z,9.32
2023-05-07T02:52:39.719Z,9.32
2023-05-07T02:53:12.518Z,8.57
2023-05-07T02:53:45.715Z,8.63
2023-05-07T02:54:18.622Z,7.85
2023-05-07T02:54:50.496Z,9.25
2023-05-07T02:55:23.369Z,10.43
2023-05-07T02:55:56.231Z,9.15
2023-05-07T02:56:28.180Z,8.02
2023-05-07T02:57:01.821Z,8.80
2023-05-07T02:57:33.598Z,8.25
2023-05-07T02:58:05.495Z,7.85
2023-05-07T02:58:40.212Z,9.40
2023-05-07T02:59:12.006Z,8.00
2023-05-07T02:59:44.258Z,9.20
2023-05-07T03:00:19.458Z,8.85
2023-05-07T03:00:51.644Z,8.63
2023-05-07T03:01:23.485Z,9.25
2023-05-07T03:01:56.293Z,9.35
2023-05-07T03:02:28.170Z,8.73
2023-05-07T03:02:59.998Z,8.30
2023-05-07T03:03:32.856Z,7.90
2023-05-07T03:04:05.074Z,10.18
2023-05-07T03:04:37.074Z,8.68
2023-05-07T03:05:10.137Z,8.75
2023-05-07T03:05:42.112Z,9.10
2023-05-07T03:06:13.868Z,9.32
2023-05-07T03:06:46.622Z,8.57
2023-05-07T03:07:18.413Z,7.82
2023-05-07T03:07:50.281Z,7.80
2023-05-07T03:08:23.042Z,8.65
2023-05-07T03:08:56.229Z,9.25
2023-05-07T03:09:28.047Z,8.68
2023-05-07T03:10:01.291Z,9.32
2023-05-07T03:10:33.239Z,7.25
2023-05-07T03:11:05.188Z,10.00
2023-05-07T03:11:38.356Z,8.85
2023-05-07T03:12:10.160Z,8.45
2023-05-07T03:12:42.188Z,8.60
2023-05-07T03:13:15.071Z,8.75
2023-05-07T03:13:46.889Z,9.27
2023-05-07T03:14:18.783Z,8.07
2023-05-07T03:14:51.635Z,8.63
2023-05-07T03:15:23.585Z,7.80
2023-05-07T03:15:55.498Z,9.35
2023-05-07T03:16:27.690Z,7.85
2023-05-07T03:17:00.604Z,7.55
2023-05-07T03:17:32.444Z,8.50
2023-05-07T03:18:04.567Z,8.18
2023-05-07T03:18:37.481Z,7.80
2023-05-07T03:19:09.415Z,8.13
2023-05-07T03:19:41.198Z,7.95
2023-05-07T03:20:14.372Z,7.63
2023-05-07T03:20:47.061Z,7.55
2023-05-07T03:21:19.053Z,8.43
2023-05-07T03:21:51.854Z,7.32
2023-05-07T03:22:23.665Z,7.35
2023-05-07T03:22:55.507Z,8.43
2023-05-07T03:23:28.286Z,7.57
2023-05-07T03:24:01.636Z,7.78
2023-05-07T03:24:33.543Z,8.50
2023-05-07T03:25:07.603Z,8.40
2023-05-07T03:25:39.410Z,8.02
2023-05-07T03:26:11.220Z,7.88
2023-05-07T03:26:43.971Z,8.27
2023-05-07T03:27:15.796Z,8.00
2023-05-07T03:27:47.645Z,7.15
2023-05-07T03:28:19.493Z,7.75
2023-05-07T03:28:52.293Z,7.15
2023-05-07T03:29:24.238Z,8.00
2023-05-07T03:29:56.053Z,7.10
2023-05-07T03:30:27.849Z,7.32
2023-05-07T03:31:00.714Z,7.30
2023-05-07T03:31:32.677Z,7.95
2023-05-07T03:32:05.081Z,7.47
2023-05-07T03:32:38.070Z,7.80
2023-05-07T03:33:09.908Z,8.13
2023-05-07T03:33:52.210Z,7.18
2023-05-07T03:34:25.066Z,7.20
2023-05-07T03:34:57.224Z,7.53
2023-05-07T03:35:29.082Z,8.13
2023-05-07T03:36:01.849Z,7.32
2023-05-07T03:36:34.573Z,8.20
2023-05-07T03:37:06.404Z,6.47
2023-05-07T03:37:39.401Z,8.38
2023-05-07T03:38:12.225Z,6.70
2023-05-07T03:38:44.051Z,7.00
2023-05-07T03:39:17.223Z,8.15
2023-05-07T03:39:49.949Z,6.97
2023-05-07T03:40:21.794Z,8.00
2023-05-07T03:40:53.609Z,6.57
2023-05-07T03:41:26.654Z,7.60
2023-05-07T03:42:00.361Z,7.70
2023-05-07T03:42:32.164Z,7.30
2023-05-07T03:43:04.046Z,7.38
2023-05-07T03:43:36.906Z,9.13
2023-05-07T03:44:08.714Z,8.88
2023-05-07T03:44:40.849Z,8.15
2023-05-07T03:45:13.627Z,7.70
2023-05-07T03:45:45.485Z,6.78
2023-05-07T03:46:17.328Z,7.22
2023-05-07T03:46:49.283Z,7.60
2023-05-07T03:47:22.067Z,7.72
2023-05-07T03:47:53.856Z,7.72
2023-05-07T03:48:25.875Z,7.00
2023-05-07T03:48:58.757Z,7.07
2023-05-07T03:49:30.641Z,7.78
2023-05-07T03:50:02.548Z,7.15
2023-05-07T03:50:35.516Z,7.63
2023-05-07T03:51:07.332Z,7.40
2023-05-07T03:51:39.124Z,7.22
2023-05-07T03:52:11.895Z,7.18
2023-05-07T03:52:43.724Z,7.53
2023-05-07T03:53:15.557Z,7.57
2023-05-07T03:53:47.436Z,7.65
2023-05-07T03:54:21.803Z,8.07
2023-05-07T03:54:53.951Z,7.20
2023-05-07T03:55:26.132Z,7.20
2023-05-07T03:55:58.901Z,7.40
2023-05-07T03:56:32.191Z,7.43
2023-05-07T03:57:04.163Z,7.28
2023-05-07T03:57:36.933Z,6.47
2023-05-07T03:58:08.802Z,7.10
2023-05-07T03:58:40.626Z,7.60
2023-05-07T03:59:14.100Z,7.40
2023-05-07T03:59:46.135Z,8.02
2023-05-07T04:00:18.159Z,10.80
2023-05-07T04:00:51.004Z,7.00
2023-05-07T04:01:22.873Z,9.23
2023-05-07T04:01:54.772Z,7.90
2023-05-07T04:02:27.666Z,7.68
2023-05-07T04:02:59.903Z,7.78
2023-05-07T04:03:32.019Z,7.80
2023-05-07T04:04:05.193Z,7.85
2023-05-07T04:04:38.111Z,8.43
2023-05-07T04:05:10.551Z,9.00
2023-05-07T04:05:42.673Z,6.80
2023-05-07T04:06:15.676Z,7.40
2023-05-07T04:06:47.453Z,7.35
2023-05-07T04:07:19.279Z,8.88
2023-05-07T04:07:52.050Z,7.75
2023-05-07T04:08:23.824Z,7.40
2023-05-07T04:08:55.619Z,7.55
2023-05-07T04:09:29.737Z,6.82
2023-05-07T04:10:01.572Z,8.15
2023-05-07T04:10:33.489Z,8.68
2023-05-07T04:11:06.440Z,7.50
2023-05-07T04:11:38.304Z,8.38
2023-05-07T04:12:11.063Z,7.60
2023-05-07T04:12:42.902Z,7.65
2023-05-07T04:13:14.889Z,8.55
2023-05-07T04:13:48.244Z,7.05
2023-05-07T04:14:20.353Z,7.28
2023-05-07T04:14:52.191Z,7.25
2023-05-07T04:15:25.420Z,7.30
2023-05-07T04:15:57.411Z,7.95
2023-05-07T04:16:29.283Z,7.18
2023-05-07T04:17:02.185Z,11.43
2023-05-07T04:17:34.115Z,7.45
2023-05-07T04:18:06.238Z,8.05
2023-05-07T04:18:39.079Z,7.93
2023-05-07T04:19:11.071Z,7.10
2023-05-07T04:19:46.161Z,7.28
2023-05-07T04:20:19.398Z,7.50
2023-05-07T04:20:51.294Z,7.38
2023-05-07T04:21:23.120Z,6.85
2023-05-07T04:21:56.012Z,7.50
2023-05-07T04:22:27.890Z,7.78
2023-05-07T04:22:59.683Z,8.00
2023-05-07T04:23:32.503Z,7.35
2023-05-07T04:24:04.889Z,7.30
2023-05-07T04:24:38.062Z,7.13
2023-05-07T04:25:10.805Z,7.20
2023-05-07T04:25:43.599Z,7.45
2023-05-07T04:26:16.110Z,7.30
2023-05-07T04:26:47.981Z,7.20
2023-05-07T04:27:21.278Z,6.97
2023-05-07T04:27:53.065Z,8.45
2023-05-07T04:28:25.027Z,7.72
2023-05-07T04:28:58.622Z,7.38
2023-05-07T04:29:30.456Z,6.35
2023-05-07T04:30:02.343Z,7.72
2023-05-07T04:30:34.275Z,8.25
2023-05-07T04:31:07.158Z,7.45
2023-05-07T04:31:39.039Z,7.20
2023-05-07T04:32:11.177Z,6.80
2023-05-07T04:32:45.362Z,8.23
2023-05-07T04:33:17.865Z,8.13
2023-05-07T04:33:51.590Z,6.85
2023-05-07T04:34:23.436Z,6.72
2023-05-07T04:34:55.231Z,7.03
2023-05-07T04:35:27.395Z,7.05
2023-05-07T04:36:03.636Z,6.97
2023-05-07T04:36:35.523Z,6.35
2023-05-07T04:37:07.331Z,7.45
2023-05-07T04:37:40.078Z,7.05
2023-05-07T04:38:11.988Z,7.05
2023-05-07T04:38:43.811Z,7.25
2023-05-07T04:39:17.028Z,6.93
2023-05-07T04:39:50.286Z,8.48
2023-05-07T04:40:22.071Z,7.00
2023-05-07T04:40:55.710Z,7.10
2023-05-07T04:41:27.552Z,7.47
2023-05-07T04:41:59.337Z,7.53
2023-05-07T04:42:32.128Z,7.38
2023-05-07T04:43:03.932Z,7.28
2023-05-07T04:43:36.056Z,7.28
2023-05-07T04:44:10.182Z,6.30
2023-05-07T04:44:42.004Z,7.63
2023-05-07T04:45:13.838Z,7.13
2023-05-07T04:45:46.739Z,7.65
2023-05-07T04:46:18.651Z,6.70
2023-05-07T04:46:50.462Z,6.53
2023-05-07T04:47:23.336Z,6.88
2023-05-07T04:47:55.254Z,7.13
2023-05-07T04:48:27.375Z,6.80
2023-05-07T04:49:00.184Z,7.97
2023-05-07T04:49:31.990Z,7.05
2023-05-07T04:50:04.087Z,9.63
2023-05-07T04:50:37.011Z,7.68
2023-05-07T04:51:08.872Z,7.63
2023-05-07T04:51:44.897Z,7.00
2023-05-07T04:52:17.913Z,7.28
2023-05-07T04:52:49.698Z,7.75
2023-05-07T04:53:22.268Z,7.68
2023-05-07T04:53:55.019Z,6.80
2023-05-07T04:54:27.453Z,6.85
2023-05-07T04:55:01.741Z,7.20
2023-05-07T04:55:34.535Z,8.50
2023-05-07T04:56:06.673Z,7.65
2023-05-07T04:56:38.470Z,6.70
2023-05-07T04:57:11.374Z,7.13
2023-05-07T04:57:43.216Z,7.38
2023-05-07T04:58:15.072Z,6.38
2023-05-07T04:58:47.896Z,6.85
2023-05-07T04:59:19.781Z,7.32
2023-05-07T04:59:51.888Z,8.05
2023-05-07T05:00:26.100Z,9.68
2023-05-07T05:00:57.937Z,7.57
2023-05-07T05:01:29.861Z,6.20
2023-05-07T05:02:05.044Z,5.95
2023-05-07T05:02:37.006Z,6.97
2023-05-07T05:03:08.894Z,7.47
2023-05-07T05:03:41.864Z,6.32
2023-05-07T05:04:13.999Z,7.32
2023-05-07T05:04:45.862Z,6.97
2023-05-07T05:05:18.715Z,6.13
2023-05-07T05:05:52.773Z,6.28
2023-05-07T05:06:24.614Z,6.70
2023-05-07T05:06:57.441Z,5.75
2023-05-07T05:07:29.363Z,7.00
2023-05-07T05:08:01.165Z,6.10
2023-05-07T05:08:33.913Z,6.90
2023-05-07T05:09:05.878Z,6.75
2023-05-07T05:09:37.857Z,6.50
2023-05-07T05:10:12.478Z,7.45
2023-05-07T05:10:44.613Z,5.90
2023-05-07T05:11:16.425Z,5.90
2023-05-07T05:11:49.215Z,7.30
2023-05-07T05:12:21.032Z,7.15
2023-05-07T05:12:52.991Z,6.32
2023-05-07T05:13:25.900Z,6.05
2023-05-07T05:13:57.855Z,5.28
2023-05-07T05:14:30.401Z,6.18
2023-05-07T05:15:03.231Z,5.63
2023-05-07T05:15:35.024Z,6.57
2023-05-07T05:16:07.133Z,6.07
2023-05-07T05:16:40.104Z,6.15
2023-05-07T05:17:12.025Z,6.78
2023-05-07T05:17:43.977Z,6.65
2023-05-07T05:18:16.800Z,6.22
2023-05-07T05:18:48.642Z,6.55
2023-05-07T05:19:20.442Z,6.07
2023-05-07T05:19:53.235Z,5.53
2023-05-07T05:20:25.024Z,6.20
2023-05-07T05:20:56.902Z,5.90
2023-05-07T05:21:29.671Z,6.45
2023-05-07T05:22:01.978Z,5.50
2023-05-07T05:22:33.885Z,6.68
2023-05-07T05:23:06.862Z,6.60
2023-05-07T05:23:38.933Z,5.57
2023-05-07T05:24:10.898Z,5.95
2023-05-07T05:24:43.663Z,5.47
2023-05-07T05:25:16.893Z,5.50
2023-05-07T05:25:48.850Z,6.75
2023-05-07T05:26:22.368Z,6.13
2023-05-07T05:26:54.769Z,6.40
2023-05-07T05:27:26.620Z,5.82
2023-05-07T05:27:59.437Z,6.70
2023-05-07T05:28:31.396Z,5.78
2023-05-07T05:29:03.919Z,5.70
2023-05-07T05:29:36.800Z,5.10
2023-05-07T05:30:09.603Z,5.88
2023-05-07T05:30:41.802Z,5.50
2023-05-07T05:31:15.076Z,5.70
2023-05-07T05:31:46.982Z,5.95
2023-05-07T05:32:18.840Z,6.93
2023-05-07T05:32:51.719Z,5.90
2023-05-07T05:33:23.573Z,8.10
2023-05-07T05:33:55.374Z,6.53
2023-05-07T05:34:28.462Z,6.50
2023-05-07T05:35:00.861Z,7.03
2023-05-07T05:35:32.710Z,5.80
2023-05-07T05:36:06.155Z,5.90
2023-05-07T05:36:37.989Z,6.38
2023-05-07T05:37:09.787Z,5.90
2023-05-07T05:37:42.563Z,5.63
2023-05-07T05:38:14.682Z,5.57
2023-05-07T05:38:46.464Z,5.95
2023-05-07T05:39:19.705Z,6.50
2023-05-07T05:39:51.650Z,5.70
2023-05-07T05:40:24.775Z,5.80
2023-05-07T05:40:57.538Z,6.90
2023-05-07T05:41:29.343Z,6.47
2023-05-07T05:42:01.520Z,6.75
2023-05-07T05:42:34.288Z,6.28
2023-05-07T05:43:07.064Z,5.93
2023-05-07T05:43:38.886Z,6.35
2023-05-07T05:44:11.651Z,6.50
2023-05-07T05:44:43.582Z,6.75
2023-05-07T05:45:15.489Z,6.50
2023-05-07T05:45:48.311Z,6.40
2023-05-07T05:46:20.328Z,6.22
2023-05-07T05:46:52.287Z,6.25
2023-05-07T05:47:24.307Z,6.25
2023-05-07T05:47:58.420Z,7.43
2023-05-07T05:48:30.436Z,6.43
2023-05-07T05:49:02.289Z,6.65
2023-05-07T05:49:35.418Z,6.90
2023-05-07T05:50:08.517Z,6.65
2023-05-07T05:50:40.541Z,5.85
2023-05-07T05:51:13.403Z,6.35
2023-05-07T05:51:45.321Z,5.68
2023-05-07T05:52:18.090Z,6.95
2023-05-07T05:52:51.043Z,5.63
2023-05-07T05:53:22.905Z,6.68
2023-05-07T05:53:54.705Z,6.85
2023-05-07T05:54:27.456Z,6.00
2023-05-07T05:54:59.246Z,6.18
2023-05-07T05:55:34.061Z,6.78
2023-05-07T05:56:06.700Z,6.40
2023-05-07T05:56:38.738Z,5.78
2023-05-07T05:57:11.538Z,6.93
2023-05-07T05:57:43.422Z,7.15
2023-05-07T05:58:16.247Z,6.82
2023-05-07T05:58:49.176Z,6.70
2023-05-07T05:59:21.125Z,7.28
2023-05-07T05:59:53.018Z,7.03
2023-05-07T06:00:26.438Z,7.10
2023-05-07T06:00:59.078Z,7.97
2023-05-07T06:01:30.968Z,6.93
2023-05-07T06:02:03.265Z,6.63
2023-05-07T06:02:36.219Z,10.82
2023-05-07T06:03:08.149Z,9.32
2023-05-07T06:03:40.050Z,10.30
2023-05-07T06:04:12.842Z,11.13
2023-05-07T06:04:44.708Z,10.07
2023-05-07T06:05:16.819Z,8.35
2023-05-07T06:05:49.578Z,7.78
2023-05-07T06:06:21.439Z,8.30
2023-05-07T06:06:53.242Z,8.63
2023-05-07T06:07:26.012Z,8.52
2023-05-07T06:07:57.826Z,8.73
2023-05-07T06:08:31.102Z,7.30
2023-05-07T06:09:03.940Z,6.80
2023-05-07T06:09:35.774Z,10.35
2023-05-07T06:10:08.916Z,8.23
2023-05-07T06:10:43.367Z,7.00
2023-05-07T06:11:15.239Z,8.60
2023-05-07T06:11:47.078Z,8.02
2023-05-07T06:12:19.872Z,10.80
2023-05-07T06:12:51.904Z,7.60
2023-05-07T06:13:23.958Z,8.07
2023-05-07T06:13:56.821Z,6.85
2023-05-07T06:14:28.610Z,7.63
2023-05-07T06:15:00.439Z,7.00
2023-05-07T06:15:33.187Z,8.02
2023-05-07T06:16:05.840Z,7.63
2023-05-07T06:16:38.957Z,9.25
2023-05-07T06:17:11.861Z,7.63
2023-05-07T06:17:43.751Z,7.80
2023-05-07T06:18:15.606Z,7.75
2023-05-07T06:18:48.429Z,8.32
2023-05-07T06:19:24.033Z,7.60
2023-05-07T06:19:55.953Z,7.28
2023-05-07T06:20:28.709Z,6.95
2023-05-07T06:21:00.503Z,6.90
2023-05-07T06:21:32.360Z,9.07
2023-05-07T06:22:05.174Z,7.30
2023-05-07T06:22:37.001Z,7.13
2023-05-07T06:23:08.799Z,6.30
2023-05-07T06:23:42.170Z,5.97
2023-05-07T06:24:13.980Z,6.97
2023-05-07T06:24:47.074Z,7.40
2023-05-07T06:25:19.026Z,6.78
2023-05-07T06:25:52.669Z,7.50
2023-05-07T06:26:26.246Z,8.40
2023-05-07T06:26:59.295Z,8.40
2023-05-07T06:27:31.112Z,8.20
2023-05-07T06:28:03.912Z,6.05
2023-05-07T06:28:36.883Z,5.85
2023-05-07T06:29:08.745Z,6.63
2023-05-07T06:29:41.516Z,7.93
2023-05-07T06:30:13.730Z,6.28
2023-05-07T06:30:45.982Z,5.40
2023-05-07T06:31:21.302Z,6.20
2023-05-07T06:31:53.430Z,6.65
2023-05-07T06:32:26.256Z,6.90
2023-05-07T06:32:58.098Z,6.78
2023-05-07T06:33:29.856Z,6.75
2023-05-07T06:34:03.202Z,7.55
2023-05-07T06:34:35.144Z,6.05
2023-05-07T06:35:07.347Z,6.68
2023-05-07T06:35:40.099Z,6.40
2023-05-07T06:36:11.958Z,5.50
2023-05-07T06:36:43.846Z,6.05
2023-05-07T06:37:16.629Z,6.45
2023-05-07T06:37:48.405Z,6.22
2023-05-07T06:38:20.283Z,6.30
2023-05-07T06:38:53.042Z,5.72
2023-05-07T06:39:24.799Z,6.00
2023-05-07T06:39:59.299Z,5.22
2023-05-07T06:40:32.790Z,6.07
2023-05-07T06:41:07.057Z,6.10
2023-05-07T06:41:39.737Z,6.00
2023-05-07T06:42:12.542Z,5.43
2023-05-07T06:42:44.350Z,5.15
2023-05-07T06:43:16.141Z,4.90
2023-05-07T06:43:48.900Z,6.00
2023-05-07T06:44:20.862Z,5.45
2023-05-07T06:44:53.580Z,5.95
2023-05-07T06:45:26.071Z,7.70
2023-05-07T06:45:57.885Z,5.22
2023-05-07T06:46:30.956Z,5.20
2023-05-07T06:47:02.800Z,5.43
2023-05-07T06:47:34.647Z,5.38
2023-05-07T06:48:07.594Z,5.35
2023-05-07T06:48:39.531Z,4.70
2023-05-07T06:49:11.389Z,5.07
2023-05-07T06:49:44.198Z,4.63
2023-05-07T06:50:17.515Z,5.50
2023-05-07T06:50:49.334Z,4.68
2023-05-07T06:51:22.170Z,5.07
2023-05-07T06:51:54.015Z,6.15
2023-05-07T06:52:25.877Z,4.38
2023-05-07T06:52:58.629Z,4.97
2023-05-07T06:53:31.568Z,5.07
2023-05-07T06:54:05.302Z,5.50
2023-05-07T06:54:38.049Z,5.60
2023-05-07T06:55:10.278Z,5.85
2023-05-07T06:55:42.607Z,6.18
2023-05-07T06:56:16.795Z,7.07
2023-05-07T06:56:48.570Z,5.78
2023-05-07T06:57:20.370Z,6.22
2023-05-07T06:57:53.134Z,6.20
2023-05-07T06:58:24.962Z,5.85
2023-05-07T06:58:56.766Z,4.75
2023-05-07T06:59:29.536Z,5.20
2023-05-07T07:00:01.819Z,5.43
2023-05-07T07:00:33.654Z,5.15
2023-05-07T07:01:06.550Z,6.25
2023-05-07T07:01:38.566Z,5.70
2023-05-07T07:02:10.495Z,5.22
2023-05-07T07:02:43.305Z,5.60
2023-05-07T07:03:15.354Z,5.18
2023-05-07T07:03:47.749Z,6.03
2023-05-07T07:04:20.559Z,5.45
2023-05-07T07:04:52.427Z,5.97
2023-05-07T07:05:24.236Z,7.45
2023-05-07T07:05:57.231Z,4.95
2023-05-07T07:06:29.020Z,6.38
2023-05-07T07:07:00.794Z,6.03
2023-05-07T07:07:33.553Z,4.50
2023-05-07T07:08:06.008Z,8.07
2023-05-07T07:08:39.570Z,5.63
2023-05-07T07:09:12.326Z,4.90
2023-05-07T07:09:44.175Z,5.15
2023-05-07T07:10:16.636Z,7.65
2023-05-07T07:10:49.454Z,5.43